Time;durP1;ratioP1;P1;durP2;ratioP2;P2;SDS_P1;SDS_P2;PMS_P1;PMS_P2;Temp;Humidity;BMP_temperature;BMP_pressure;BME280_temperature;BME280_humidity;BME280_pressure;Samples;Min_cycle;Max_cycle;Signal;HPM_P1;HPM_P2
2023/05/13 00:01:24;;;;;;;8.80;6.50;;;12.00;99.90;;;;;;5086031;28;20028;-40
2023/05/13 00:03:50;;;;;;;8.10;6.72;;;12.00;99.90;;;;;;5088696;28;20016;-40
2023/05/13 00:06:15;;;;;;;9.45;6.72;;;12.00;99.90;;;;;;5088612;28;20107;-40
2023/05/13 00:08:41;;;;;;;7.45;6.18;;;11.90;99.90;;;;;;5089042;28;20469;-41
2023/05/13 00:11:07;;;;;;;8.60;6.47;;;11.90;99.90;;;;;;5088719;28;20024;-41
2023/05/13 00:13:33;;;;;;;8.65;6.78;;;11.90;99.90;;;;;;5087605;28;20032;-40
2023/05/13 00:15:58;;;;;;;8.23;6.50;;;11.90;99.90;;;;;;5087676;28;20027;-40
2023/05/13 00:18:24;;;;;;;9.45;6.75;;;11.80;99.90;;;;;;5089192;28;20480;-40
2023/05/13 00:20:50;;;;;;;8.93;6.20;;;11.80;99.90;;;;;;5088902;28;20103;-40
2023/05/13 00:23:16;;;;;;;6.82;5.75;;;11.80;99.90;;;;;;5088393;28;20099;-40
2023/05/13 00:25:43;;;;;;;9.80;6.10;;;11.70;99.90;;;;;;5088682;28;20090;-43
2023/05/13 00:28:09;;;;;;;6.70;5.75;;;11.70;99.90;;;;;;5087292;28;20056;-40
2023/05/13 00:30:35;;;;;;;6.53;5.65;;;11.60;99.90;;;;;;5088646;28;20052;-40
2023/05/13 00:33:01;;;;;;;7.25;5.90;;;11.60;99.90;;;;;;5085576;28;20016;-40
2023/05/13 00:35:27;;;;;;;8.45;6.22;;;11.60;99.90;;;;;;5088807;28;20031;-40
2023/05/13 00:37:53;;;;;;;6.95;6.22;;;11.50;99.90;;;;;;5084590;28;20016;-40
2023/05/13 00:40:22;;;;;;;7.57;6.28;;;11.50;99.90;;;;;;5088738;28;20016;-40
2023/05/13 00:42:48;;;;;;;7.55;6.75;;;11.50;99.90;;;;;;5088025;28;20048;-40
2023/05/13 00:45:13;;;;;;;9.05;6.78;;;11.40;99.90;;;;;;5086026;28;20016;-48
2023/05/13 00:47:40;;;;;;;7.28;6.50;;;11.40;99.90;;;;;;5082764;28;20094;-40
2023/05/13 00:50:08;;;;;;;9.70;6.78;;;11.40;99.90;;;;;;5077344;28;20016;-40
2023/05/13 00:52:33;;;;;;;7.32;6.18;;;11.30;99.90;;;;;;5074827;28;20035;-40
2023/05/13 00:54:59;;;;;;;8.23;6.13;;;11.30;99.90;;;;;;5078021;28;20099;-40
2023/05/13 00:57:25;;;;;;;9.73;6.95;;;11.30;99.90;;;;;;5077271;28;20020;-40
2023/05/13 00:59:51;;;;;;;7.97;6.38;;;11.30;99.90;;;;;;5042288;28;20481;-40
2023/05/13 01:02:25;;;;;;;7.88;6.18;;;11.30;99.90;;;;;;5078282;28;20099;-41
2023/05/13 01:05:19;;;;;;;8.27;6.80;;;11.20;99.90;;;;;;5078927;28;20370;-41
2023/05/13 01:08:11;;;;;;;6.72;5.95;;;11.10;99.90;;;;;;5074017;28;20498;-40
2023/05/13 01:10:52;;;;;;;7.63;6.82;;;11.10;99.90;;;;;;5077978;28;20028;-39
2023/05/13 01:13:20;;;;;;;;;;;11.00;99.90;;;;;;5074520;28;20033;-39
2023/05/13 01:16:05;;;;;;;9.23;6.75;;;11.00;99.90;;;;;;5060336;28;19908;-39
2023/05/13 01:18:36;;;;;;;7.50;6.10;;;11.00;99.90;;;;;;5064741;28;20563;-39
2023/05/13 01:21:02;;;;;;;;;;;11.00;99.90;;;;;;5080460;28;20497;-40
2023/05/13 01:23:28;;;;;;;6.60;5.95;;;11.10;99.90;;;;;;5079925;28;19966;-40
2023/05/13 01:25:54;;;;;;;11.13;6.97;;;11.00;99.90;;;;;;5083071;28;20477;-39
2023/05/13 01:28:20;;;;;;;9.05;6.78;;;10.90;99.90;;;;;;5081404;28;20017;-39
2023/05/13 01:30:46;;;;;;;8.18;6.28;;;10.90;99.90;;;;;;5080748;28;20103;-39
2023/05/13 01:33:14;;;;;;;8.55;7.18;;;10.80;99.90;;;;;;5082628;28;20022;-39
2023/05/13 01:35:40;;;;;;;9.63;6.80;;;10.80;99.90;;;;;;5063563;28;20559;-39
2023/05/13 01:38:06;;;;;;;8.30;6.43;;;10.70;99.90;;;;;;5081277;28;20032;-40
2023/05/13 01:40:33;;;;;;;8.68;6.55;;;10.70;99.90;;;;;;5064463;28;20096;-40
2023/05/13 01:42:59;;;;;;;10.75;6.70;;;10.70;99.90;;;;;;5060511;28;20032;-40
2023/05/13 01:45:27;;;;;;;11.35;6.68;;;10.60;99.90;;;;;;5080996;28;20020;-40
2023/05/13 01:47:53;;;;;;;8.50;6.55;;;10.70;99.90;;;;;;5087825;28;20024;-40
2023/05/13 01:50:18;;;;;;;9.32;6.20;;;10.70;99.90;;;;;;5091226;28;20028;-40
2023/05/13 01:52:44;;;;;;;11.45;6.32;;;10.80;99.90;;;;;;5090904;28;20048;-40
2023/05/13 01:55:11;;;;;;;13.80;7.18;;;10.80;99.90;;;;;;5090119;28;20031;-39
2023/05/13 01:57:37;;;;;;;7.70;6.50;;;10.80;99.90;;;;;;5091369;28;20020;-39
2023/05/13 02:00:05;;;;;;;9.25;6.20;;;10.80;99.90;;;;;;5090203;28;20391;-40
2023/05/13 02:02:30;;;;;;;8.07;6.72;;;10.80;99.90;;;;;;5089614;28;20048;-40
2023/05/13 02:04:56;;;;;;;10.73;7.60;;;10.70;99.90;;;;;;5089665;28;20105;-40
2023/05/13 02:07:22;;;;;;;17.30;7.03;;;10.70;99.90;;;;;;5089741;28;20028;-39
2023/05/13 02:09:47;;;;;;;8.38;6.82;;;10.80;99.90;;;;;;5090867;28;20508;-40
2023/05/13 02:12:13;;;;;;;7.15;6.45;;;10.80;99.90;;;;;;5090554;28;20428;-40
2023/05/13 02:14:38;;;;;;;9.50;7.13;;;10.80;99.90;;;;;;5090849;28;20032;-40
2023/05/13 02:17:04;;;;;;;8.68;6.60;;;10.80;99.90;;;;;;5091281;28;20026;-40
2023/05/13 02:19:30;;;;;;;7.45;6.60;;;10.80;99.90;;;;;;5089472;28;20378;-40
2023/05/13 02:21:56;;;;;;;7.93;6.40;;;10.70;99.90;;;;;;5090848;28;20377;-39
2023/05/13 02:24:22;;;;;;;9.88;6.70;;;10.80;99.90;;;;;;5089664;28;20031;-40
2023/05/13 02:26:47;;;;;;;10.00;6.47;;;10.70;99.90;;;;;;5090725;28;20024;-40
2023/05/13 02:29:13;;;;;;;9.57;6.93;;;10.70;99.90;;;;;;5089301;28;20052;-40
2023/05/13 02:31:41;;;;;;;9.35;6.78;;;10.70;99.90;;;;;;5090147;28;20286;-40
2023/05/13 02:34:07;;;;;;;9.35;6.30;;;10.70;99.90;;;;;;5090675;28;20020;-40
2023/05/13 02:36:33;;;;;;;7.70;5.93;;;10.60;99.90;;;;;;5088991;28;20032;-40
2023/05/13 02:38:59;;;;;;;9.55;7.07;;;10.60;99.90;;;;;;5089279;28;20016;-40
2023/05/13 02:41:25;;;;;;;7.30;6.57;;;10.60;99.90;;;;;;5090137;28;20089;-40
2023/05/13 02:43:51;;;;;;;7.03;6.22;;;10.60;99.90;;;;;;5090280;28;20024;-40
2023/05/13 02:46:16;;;;;;;7.45;6.40;;;10.60;99.90;;;;;;5090394;28;20072;-41
2023/05/13 02:48:45;;;;;;;9.00;6.90;;;10.50;99.90;;;;;;5082635;28;20028;-40
2023/05/13 02:51:11;;;;;;;8.55;6.80;;;10.50;99.90;;;;;;5078645;28;20539;-40
2023/05/13 02:53:37;;;;;;;7.13;6.47;;;10.40;99.90;;;;;;5080857;28;20063;-40
2023/05/13 02:56:03;;;;;;;8.63;6.97;;;10.40;99.90;;;;;;5080114;28;20040;-40
2023/05/13 02:58:29;;;;;;;8.77;6.78;;;10.30;99.90;;;;;;5079326;28;20012;-40
2023/05/13 03:00:55;;;;;;;7.93;6.47;;;10.30;99.90;;;;;;5078633;28;20436;-40
2023/05/13 03:03:21;;;;;;;8.45;7.18;;;10.30;99.90;;;;;;5061687;28;20031;-40
2023/05/13 03:05:46;;;;;;;10.27;6.72;;;10.30;99.90;;;;;;5079078;28;20028;-40
2023/05/13 03:08:12;;;;;;;7.53;6.35;;;10.30;99.90;;;;;;5078662;28;20028;-40
2023/05/13 03:10:38;;;;;;;11.40;7.22;;;10.30;99.90;;;;;;5062016;28;20032;-40
2023/05/13 03:13:04;;;;;;;10.40;6.80;;;10.30;99.90;;;;;;5061700;28;20103;-40
2023/05/13 03:15:33;;;;;;;7.18;6.05;;;10.20;99.90;;;;;;5078519;28;20044;-40
2023/05/13 03:17:59;;;;;;;7.70;6.90;;;10.20;99.90;;;;;;5078957;28;20021;-40
2023/05/13 03:20:24;;;;;;;8.77;7.22;;;10.20;99.90;;;;;;5063088;28;20389;-39
2023/05/13 03:22:50;;;;;;;8.80;7.28;;;10.20;99.90;;;;;;5059614;28;20082;-40
2023/05/13 03:25:16;;;;;;;8.80;7.45;;;10.10;99.90;;;;;;5062473;28;20081;-40
2023/05/13 03:27:41;;;;;;;11.70;7.30;;;10.10;99.90;;;;;;5079251;28;20021;-44
2023/05/13 03:30:07;;;;;;;8.18;7.10;;;10.10;99.90;;;;;;5060478;28;20023;-40
2023/05/13 03:32:34;;;;;;;8.55;7.53;;;10.00;99.90;;;;;;5079717;28;20016;-40
2023/05/13 03:35:00;;;;;;;9.85;7.47;;;10.00;99.90;;;;;;5078633;28;20020;-40
2023/05/13 03:37:28;;;;;;;8.77;7.88;;;10.00;99.90;;;;;;5078631;28;20099;-40
2023/05/13 03:39:54;;;;;;;8.38;7.35;;;9.90;99.90;;;;;;5061433;28;20077;-39
2023/05/13 03:42:22;;;;;;;9.80;7.10;;;9.90;99.90;;;;;;5060160;28;20425;-40
2023/05/13 03:44:50;;;;;;;8.65;7.32;;;9.90;99.90;;;;;;5060221;28;20066;-40
2023/05/13 03:47:16;;;;;;;8.50;7.60;;;9.90;99.90;;;;;;5080089;28;20033;-40
2023/05/13 03:49:43;;;;;;;9.02;6.97;;;9.90;99.90;;;;;;5086154;28;20386;-42
2023/05/13 03:52:09;;;;;;;9.45;7.30;;;9.90;99.90;;;;;;5087495;28;20023;-40
2023/05/13 03:54:34;;;;;;;9.18;7.60;;;9.80;99.90;;;;;;5089003;28;20452;-40
2023/05/13 03:57:00;;;;;;;7.05;6.22;;;9.90;99.90;;;;;;5087694;28;20028;-40
2023/05/13 03:59:26;;;;;;;11.15;7.40;;;9.80;99.90;;;;;;5089605;28;20024;-40
2023/05/13 04:01:51;;;;;;;9.65;7.18;;;9.80;99.90;;;;;;5089271;28;20024;-40
2023/05/13 04:04:17;;;;;;;8.98;7.50;;;9.80;99.90;;;;;;5089710;28;20033;-40
2023/05/13 04:06:43;;;;;;;10.25;7.55;;;9.80;99.90;;;;;;5089519;28;20056;-40
2023/05/13 04:09:09;;;;;;;8.30;7.10;;;9.90;99.90;;;;;;5089219;28;20027;-40
2023/05/13 04:11:35;;;;;;;7.85;7.05;;;9.90;99.90;;;;;;5087429;28;20706;-40
2023/05/13 04:14:00;;;;;;;11.27;7.35;;;9.90;99.90;;;;;;5089278;28;20371;-40
2023/05/13 04:16:26;;;;;;;9.35;7.22;;;9.90;99.90;;;;;;5089074;28;20028;-40
2023/05/13 04:18:52;;;;;;;9.93;6.88;;;10.00;99.90;;;;;;5089163;28;20020;-40
2023/05/13 04:21:18;;;;;;;10.00;6.80;;;10.10;99.90;;;;;;5087025;28;20071;-40
2023/05/13 04:23:44;;;;;;;10.85;7.30;;;10.10;99.90;;;;;;5088787;28;20414;-40
2023/05/13 04:26:10;;;;;;;14.30;8.23;;;10.20;99.90;;;;;;5084834;28;20111;-39
2023/05/13 04:28:36;;;;;;;12.02;7.60;;;10.20;99.90;;;;;;5088219;28;20625;-39
2023/05/13 04:31:02;;;;;;;10.10;6.97;;;10.20;99.90;;;;;;5089045;28;20460;-40
2023/05/13 04:33:28;;;;;;;13.20;7.13;;;10.20;99.90;;;;;;5087209;28;20074;-40
2023/05/13 04:35:54;;;;;;;12.25;8.35;;;10.30;99.90;;;;;;5088733;28;20043;-40
2023/05/13 04:38:20;;;;;;;9.73;7.45;;;10.30;99.90;;;;;;5088142;28;20237;-40
2023/05/13 04:40:46;;;;;;;11.50;7.40;;;10.30;99.90;;;;;;5086924;28;20081;-40
2023/05/13 04:43:12;;;;;;;9.88;7.57;;;10.30;99.90;;;;;;5087183;28;20035;-40
2023/05/13 04:45:38;;;;;;;10.48;7.50;;;10.40;99.90;;;;;;5087149;28;20073;-39
2023/05/13 04:48:04;;;;;;;13.27;7.00;;;10.40;99.90;;;;;;5081248;28;20480;-40
2023/05/13 04:50:30;;;;;;;8.73;6.57;;;10.40;99.90;;;;;;5084687;28;20023;-40
2023/05/13 04:52:56;;;;;;;12.48;8.32;;;10.40;99.90;;;;;;5080883;28;20138;-40
2023/05/13 04:55:22;;;;;;;9.63;6.95;;;10.50;99.90;;;;;;5082450;28;20025;-40
2023/05/13 04:57:48;;;;;;;7.78;6.78;;;10.50;99.90;;;;;;5081822;28;20013;-40
2023/05/13 05:00:15;;;;;;;10.27;7.45;;;10.60;99.90;;;;;;5083509;28;20525;-41
2023/05/13 05:02:41;;;;;;;10.55;7.18;;;10.60;99.90;;;;;;5056983;28;20271;-40
2023/05/13 05:05:06;;;;;;;9.40;7.43;;;10.60;99.90;;;;;;5072183;28;20028;-39
2023/05/13 05:07:32;;;;;;;9.23;6.82;;;10.60;99.90;;;;;;5082517;28;20489;-39
2023/05/13 05:09:58;;;;;;;10.52;6.57;;;10.70;99.90;;;;;;5082878;28;20051;-40
2023/05/13 05:12:24;;;;;;;11.07;6.80;;;10.70;99.90;;;;;;5080648;28;20373;-40
2023/05/13 05:14:50;;;;;;;9.27;7.00;;;10.70;99.90;;;;;;5064760;28;20028;-39
2023/05/13 05:17:16;;;;;;;9.48;7.55;;;10.80;99.90;;;;;;5082483;28;20095;-39
2023/05/13 05:19:44;;;;;;;9.18;7.38;;;10.80;99.90;;;;;;5073068;28;20024;-40
2023/05/13 05:22:10;;;;;;;11.85;7.15;;;10.80;99.90;;;;;;5053852;28;20124;-40
2023/05/13 05:24:36;;;;;;;8.20;6.82;;;10.80;99.90;;;;;;5071983;28;20254;-39
2023/05/13 05:27:02;;;;;;;9.38;7.53;;;10.90;99.90;;;;;;5072271;28;20043;-39
2023/05/13 05:29:27;;;;;;;9.75;6.88;;;10.90;99.90;;;;;;5085315;28;20508;-40
2023/05/13 05:31:53;;;;;;;10.57;6.68;;;11.00;99.90;;;;;;5091923;28;20028;-40
2023/05/13 05:34:19;;;;;;;11.45;6.45;;;11.00;99.90;;;;;;5092179;28;20436;-41
2023/05/13 05:36:45;;;;;;;11.70;6.85;;;11.10;99.90;;;;;;5092554;28;20549;-41
2023/05/13 05:39:11;;;;;;;9.70;6.88;;;11.20;99.90;;;;;;5092250;28;20024;-40
2023/05/13 05:41:37;;;;;;;8.75;6.72;;;11.30;99.90;;;;;;5048217;28;20435;-40
2023/05/13 05:44:03;;;;;;;8.85;6.22;;;11.40;99.90;;;;;;5062846;28;20021;-40
2023/05/13 05:46:28;;;;;;;10.23;6.72;;;11.50;99.90;;;;;;5064720;28;20319;-40
2023/05/13 05:48:54;;;;;;;11.18;6.45;;;11.60;99.90;;;;;;5090630;28;20067;-40
2023/05/13 05:51:20;;;;;;;11.68;7.45;;;11.70;99.90;;;;;;5091007;28;20009;-41
2023/05/13 05:53:46;;;;;;;9.32;6.97;;;11.80;99.90;;;;;;5091231;28;20060;-41
2023/05/13 05:56:15;;;;;;;9.85;6.93;;;11.90;99.90;;;;;;5091440;28;20020;-40
2023/05/13 05:58:41;;;;;;;12.25;7.25;;;12.00;99.90;;;;;;5105275;28;20081;-40
2023/05/13 06:01:07;;;;;;;10.43;6.78;;;12.00;99.90;;;;;;5089314;28;20112;-40
2023/05/13 06:03:33;;;;;;;10.77;6.63;;;12.10;99.90;;;;;;5090789;28;20107;-40
2023/05/13 06:05:58;;;;;;;8.68;6.03;;;12.10;99.90;;;;;;5091268;28;20032;-40
2023/05/13 06:08:29;;;;;;;16.88;6.55;;;12.20;99.90;;;;;;5090983;28;20012;-40
2023/05/13 06:10:58;;;;;;;10.00;6.43;;;12.20;99.90;;;;;;5089442;28;20107;-40
2023/05/13 06:13:25;;;;;;;12.70;7.28;;;12.30;99.90;;;;;;5089526;28;20016;-40
2023/05/13 06:15:50;;;;;;;11.50;7.15;;;12.30;99.90;;;;;;5088963;28;20457;-41
2023/05/13 06:18:17;;;;;;;12.57;6.95;;;12.40;99.90;;;;;;5090798;28;20016;-40
2023/05/13 06:20:42;;;;;;;16.95;7.10;;;12.50;99.90;;;;;;5090765;28;20074;-40
2023/05/13 06:23:09;;;;;;;9.45;6.25;;;12.60;99.90;;;;;;5090567;28;20071;-41
2023/05/13 06:25:35;;;;;;;10.38;6.90;;;12.70;99.90;;;;;;5091031;28;20274;-45
2023/05/13 06:28:00;;;;;;;9.98;6.65;;;12.80;99.90;;;;;;5091221;28;20084;-44
2023/05/13 06:30:26;;;;;;;9.38;7.00;;;12.90;99.90;;;;;;5091239;28;20016;-44
2023/05/13 06:32:53;;;;;;;9.40;6.50;;;13.00;99.90;;;;;;5090614;28;20036;-45
2023/05/13 06:35:20;;;;;;;11.02;6.40;;;13.10;99.90;;;;;;5091112;28;20024;-43
2023/05/13 06:37:45;;;;;;;14.18;7.38;;;13.20;99.90;;;;;;5090987;28;20026;-45
2023/05/13 06:40:11;;;;;;;16.30;7.13;;;13.30;99.90;;;;;;5091442;28;20024;-41
2023/05/13 06:42:39;;;;;;;8.70;6.65;;;13.40;99.90;;;;;;5088883;28;20108;-37
2023/05/13 06:45:07;;;;;;;11.20;6.88;;;13.50;99.90;;;;;;5091258;28;20429;-37
2023/05/13 06:47:32;;;;;;;12.45;7.05;;;13.60;99.90;;;;;;5089558;28;20047;-37
2023/05/13 06:49:58;;;;;;;11.02;6.68;;;13.80;99.90;;;;;;5090835;28;20024;-37
2023/05/13 06:52:24;;;;;;;10.30;6.45;;;13.80;99.90;;;;;;5090415;28;20369;-38
2023/05/13 06:54:50;;;;;;;8.98;6.35;;;14.00;99.90;;;;;;5090993;28;20028;-39
2023/05/13 06:57:16;;;;;;;10.38;6.07;;;14.20;99.90;;;;;;5090797;28;20026;-38
2023/05/13 06:59:45;;;;;;;9.43;6.55;;;14.30;99.90;;;;;;5089349;28;20623;-38
2023/05/13 07:02:11;;;;;;;13.45;7.13;;;14.40;99.90;;;;;;5089990;28;20028;-39
2023/05/13 07:04:37;;;;;;;15.40;6.93;;;14.50;99.90;;;;;;5090272;28;20028;-39
2023/05/13 07:07:03;;;;;;;12.98;6.57;;;14.60;99.90;;;;;;5088470;28;20371;-43
2023/05/13 07:09:28;;;;;;;12.75;6.20;;;14.70;99.90;;;;;;5090664;28;20016;-43
2023/05/13 07:11:54;;;;;;;12.15;6.40;;;14.80;99.90;;;;;;5090086;28;20066;-43
2023/05/13 07:14:20;;;;;;;8.73;6.35;;;14.90;99.90;;;;;;5089002;28;20028;-45
2023/05/13 07:16:46;;;;;;;10.73;6.97;;;15.10;99.90;;;;;;5090118;28;20077;-44
2023/05/13 07:19:12;;;;;;;10.50;6.28;;;15.10;99.90;;;;;;5090758;28;20431;-44
2023/05/13 07:21:38;;;;;;;10.40;5.97;;;15.30;99.90;;;;;;5088493;28;20494;-44
2023/05/13 07:24:04;;;;;;;10.25;6.53;;;15.40;99.90;;;;;;5090204;28;20028;-42
2023/05/13 07:26:30;;;;;;;9.75;5.60;;;15.50;99.90;;;;;;5088913;28;20020;-43
2023/05/13 07:28:56;;;;;;;8.52;5.93;;;15.70;99.90;;;;;;5088737;28;20028;-43
2023/05/13 07:31:22;;;;;;;11.10;6.43;;;15.80;99.90;;;;;;5089763;28;20050;-43
2023/05/13 07:33:48;;;;;;;11.68;6.53;;;16.10;99.90;;;;;;5089898;28;20024;-43
2023/05/13 07:36:14;;;;;;;8.68;6.38;;;16.20;99.90;;;;;;5089809;28;20523;-43
2023/05/13 07:38:40;;;;;;;9.00;6.55;;;16.30;99.90;;;;;;5088815;28;20123;-43
2023/05/13 07:41:06;;;;;;;17.23;6.40;;;16.40;99.90;;;;;;5088144;28;20542;-44
2023/05/13 07:43:33;;;;;;;11.68;6.10;;;16.70;99.90;;;;;;5084569;28;20310;-44
2023/05/13 07:46:00;;;;;;;11.18;6.53;;;16.80;99.40;;;;;;5081415;28;20054;-44
2023/05/13 07:48:27;;;;;;;11.52;6.65;;;16.90;99.20;;;;;;5087982;28;20058;-44
2023/05/13 07:50:52;;;;;;;8.55;5.72;;;17.00;99.80;;;;;;5087836;28;20024;-44
2023/05/13 07:53:18;;;;;;;14.02;6.32;;;17.20;99.00;;;;;;5089124;28;20032;-44
2023/05/13 07:55:44;;;;;;;11.10;6.28;;;17.40;98.60;;;;;;5089302;28;20028;-44
2023/05/13 07:58:10;;;;;;;11.80;5.97;;;17.70;97.30;;;;;;5089292;28;20530;-43
2023/05/13 08:00:38;;;;;;;16.77;6.82;;;17.90;97.70;;;;;;5088962;28;20035;-43
2023/05/13 08:03:05;;;;;;;9.05;5.72;;;18.10;97.50;;;;;;5087344;28;20020;-43
2023/05/13 08:05:30;;;;;;;9.80;6.28;;;18.30;96.30;;;;;;5089271;28;20016;-44
2023/05/13 08:07:59;;;;;;;10.15;7.03;;;18.50;97.60;;;;;;5088799;28;20462;-43
2023/05/13 08:10:24;;;;;;;10.15;5.95;;;18.70;96.90;;;;;;5087579;28;20084;-44
2023/05/13 08:12:56;;;;;;;13.15;7.13;;;19.00;96.80;;;;;;5088731;28;20020;-46
2023/05/13 08:15:22;;;;;;;10.27;6.15;;;19.20;95.50;;;;;;5089248;28;20048;-43
2023/05/13 08:17:48;;;;;;;11.82;5.65;;;19.70;94.50;;;;;;5088956;28;20020;-43
2023/05/13 08:20:14;;;;;;;8.50;5.80;;;19.90;96.10;;;;;;5089043;28;20465;-43
2023/05/13 08:22:40;;;;;;;9.52;5.43;;;20.30;94.20;;;;;;5088408;28;20131;-44
2023/05/13 08:25:06;;;;;;;7.28;4.90;;;20.70;91.20;;;;;;5087956;28;20081;-43
2023/05/13 08:27:31;;;;;;;11.50;5.47;;;21.20;90.40;;;;;;5086067;28;20266;-43
2023/05/13 08:29:57;;;;;;;8.70;5.15;;;22.30;90.60;;;;;;5087909;28;20024;-44
2023/05/13 08:32:22;;;;;;;11.23;5.43;;;23.70;84.40;;;;;;5087287;28;20565;-44
2023/05/13 08:34:49;;;;;;;8.32;4.68;;;24.90;78.10;;;;;;5087313;28;20028;-45
2023/05/13 08:37:15;;;;;;;10.13;4.47;;;26.50;73.20;;;;;;5087487;28;20024;-43
2023/05/13 08:39:41;;;;;;;4.78;4.00;;;28.10;65.60;;;;;;5087662;28;20028;-44
2023/05/13 08:42:09;;;;;;;8.00;4.07;;;29.00;61.00;;;;;;5088009;28;20028;-44
2023/05/13 08:44:38;;;;;;;4.82;3.80;;;29.70;58.70;;;;;;5088846;28;20055;-41
2023/05/13 08:47:11;;;;;;;10.80;4.23;;;30.60;54.50;;;;;;5087231;28;20048;-42
2023/05/13 08:49:37;;;;;;;9.35;3.88;;;31.60;52.50;;;;;;5088719;28;20023;-43
2023/05/13 08:52:03;;;;;;;5.13;4.00;;;31.90;50.30;;;;;;5088204;28;20030;-42
2023/05/13 08:54:30;;;;;;;7.25;3.60;;;32.40;49.50;;;;;;5088569;28;20111;-42
2023/05/13 08:56:56;;;;;;;9.90;3.05;;;32.00;49.60;;;;;;5088987;28;20446;-42
2023/05/13 08:59:24;;;;;;;11.30;4.22;;;32.30;51.70;;;;;;5087008;28;20119;-40
2023/05/13 09:01:53;;;;;;;5.32;3.50;;;32.40;47.10;;;;;;5086531;28;20028;-42
2023/05/13 09:04:19;;;;;;;;;;;32.30;46.90;;;;;;5088832;28;20020;-42
2023/05/13 09:06:47;;;;;;;7.07;3.60;;;32.50;47.20;;;;;;5088366;28;20259;-41
2023/05/13 09:09:13;;;;;;;5.20;3.33;;;33.00;45.30;;;;;;5087427;28;20606;-40
2023/05/13 09:11:39;;;;;;;5.32;3.45;;;33.30;45.00;;;;;;5087912;28;20505;-38
2023/05/13 09:14:07;;;;;;;4.45;2.97;;;33.30;45.30;;;;;;5088388;28;20035;-39
2023/05/13 09:16:35;;;;;;;6.40;3.70;;;33.70;47.00;;;;;;5088463;28;20024;-40
2023/05/13 09:19:05;;;;;;;6.78;3.03;;;34.40;44.90;;;;;;5087102;28;20036;-40
2023/05/13 09:21:34;;;;;;;7.18;3.53;;;34.60;45.10;;;;;;5088419;28;20469;-40
2023/05/13 09:24:17;;;;;;;3.25;2.90;;;35.20;42.60;;;;;;5089098;28;20024;-39
2023/05/13 09:26:43;;;;;;;4.55;2.85;;;34.90;42.30;;;;;;5088678;28;20039;-39
2023/05/13 09:29:21;;;;;;;9.68;3.35;;;34.90;41.60;;;;;;5089155;28;20031;-38
2023/05/13 09:32:05;;;;;;;4.10;3.15;;;34.80;40.60;;;;;;5088693;28;20046;-40
2023/05/13 09:34:33;;;;;;;7.50;3.45;;;34.90;42.40;;;;;;5087771;28;20020;-40
2023/05/13 09:37:07;;;;;;;7.75;3.30;;;35.20;43.10;;;;;;5087589;28;20112;-41
2023/05/13 09:39:38;;;;;;;9.18;3.25;;;35.30;42.70;;;;;;5091615;28;20266;-42
2023/05/13 09:42:04;;;;;;;5.63;3.00;;;35.90;40.80;;;;;;5088889;28;20112;-41
2023/05/13 09:44:30;;;;;;;4.13;2.90;;;35.20;39.80;;;;;;5090635;28;20485;-41
2023/05/13 09:46:56;;;;;;;7.55;3.45;;;35.50;40.50;;;;;;5087390;28;20032;-41
2023/05/13 09:49:23;;;;;;;6.57;3.53;;;36.00;39.80;;;;;;5070579;28;20023;-41
2023/05/13 09:51:49;;;;;;;8.38;3.17;;;36.20;39.50;;;;;;5053072;28;20066;-41
2023/05/13 09:54:16;;;;;;;4.55;2.85;;;35.80;40.00;;;;;;5071705;28;20094;-41
2023/05/13 09:56:42;;;;;;;6.15;2.70;;;35.80;40.10;;;;;;5071536;28;20027;-41
2023/05/13 09:59:08;;;;;;;7.78;3.38;;;36.20;40.20;;;;;;5054173;28;20446;-42
2023/05/13 10:01:35;;;;;;;5.72;2.83;;;36.70;37.60;;;;;;5071744;28;20091;-42
2023/05/13 10:04:01;;;;;;;6.45;2.70;;;37.00;38.30;;;;;;5053973;28;20059;-41
2023/05/13 10:06:29;;;;;;;5.97;2.97;;;37.20;37.30;;;;;;5053875;28;20052;-41
2023/05/13 10:09:02;;;;;;;3.33;2.60;;;37.40;35.60;;;;;;5053899;28;20433;-41
2023/05/13 10:11:31;;;;;;;4.88;2.58;;;37.50;35.80;;;;;;5071019;28;20555;-41
2023/05/13 10:13:59;;;;;;;5.10;2.83;;;37.70;34.80;;;;;;5071962;28;20047;-41
2023/05/13 10:16:28;;;;;;;9.52;2.83;;;37.10;35.60;;;;;;5072002;28;20070;-41
2023/05/13 10:18:55;;;;;;;5.97;2.50;;;35.60;33.30;;;;;;5071318;28;20017;-42
2023/05/13 10:21:21;;;;;;;2.75;2.20;;;35.70;35.90;;;;;;5070853;28;20416;-41
2023/05/13 10:23:52;;;;;;;6.60;2.38;;;35.80;35.30;;;;;;5053144;28;20020;-41
2023/05/13 10:26:21;;;;;;;4.15;2.45;;;36.00;35.20;;;;;;5071540;28;20042;-41
2023/05/13 10:28:48;;;;;;;6.93;2.40;;;36.30;36.60;;;;;;5071392;28;20033;-41
2023/05/13 10:31:14;;;;;;;4.80;2.55;;;36.30;36.80;;;;;;5071147;28;20029;-40
2023/05/13 10:33:40;;;;;;;4.80;2.50;;;36.40;34.70;;;;;;5071251;28;20024;-41
2023/05/13 10:36:10;;;;;;;7.68;2.92;;;35.50;34.40;;;;;;5071430;28;20056;-42
2023/05/13 10:39:05;;;;;;;3.90;2.40;;;36.60;36.30;;;;;;5034250;28;20024;-43
2023/05/13 10:41:56;;;;;;;3.28;2.33;;;36.60;35.70;;;;;;5032848;28;20024;-41
2023/05/13 10:44:23;;;;;;;4.53;2.53;;;36.50;36.70;;;;;;5051237;28;20032;-43
2023/05/13 10:46:49;;;;;;;4.55;2.63;;;36.00;35.10;;;;;;5053129;28;20491;-42
2023/05/13 10:49:15;;;;;;;3.28;2.55;;;35.90;37.10;;;;;;5071412;28;20028;-41
2023/05/13 10:51:48;;;;;;;3.95;2.95;;;35.90;36.50;;;;;;5069075;28;20020;-41
2023/05/13 10:54:22;;;;;;;3.33;2.25;;;36.20;36.10;;;;;;5070717;28;20028;-41
2023/05/13 10:56:57;;;;;;;3.38;2.33;;;36.60;33.30;;;;;;5069390;28;20036;-42
2023/05/13 10:59:24;;;;;;;5.97;2.75;;;36.50;36.60;;;;;;5070752;28;20047;-44
2023/05/13 11:01:49;;;;;;;5.88;2.33;;;36.20;35.00;;;;;;5070052;28;20443;-43
2023/05/13 11:04:17;;;;;;;8.45;2.55;;;35.50;37.30;;;;;;5070530;28;20107;-42
2023/05/13 11:06:48;;;;;;;3.45;2.22;;;35.90;35.70;;;;;;5069213;28;20078;-42
2023/05/13 11:09:20;;;;;;;6.13;2.63;;;36.00;36.40;;;;;;5070670;28;20031;-43
2023/05/13 11:12:03;;;;;;;4.22;1.92;;;36.10;35.50;;;;;;5068768;28;20031;-41
2023/05/13 11:14:30;;;;;;;5.97;2.25;;;36.70;34.70;;;;;;5070457;28;20607;-41
2023/05/13 11:17:03;;;;;;;2.65;2.38;;;37.00;35.60;;;;;;5070668;28;20024;-41
2023/05/13 11:19:47;;;;;;;4.68;2.40;;;37.00;34.70;;;;;;5069895;28;20036;-41
2023/05/13 11:22:17;;;;;;;6.68;2.80;;;36.40;33.50;;;;;;5051985;28;20028;-41
2023/05/13 11:25:02;;;;;;;5.80;2.30;;;36.60;33.30;;;;;;5076655;28;20032;-41
2023/05/13 11:27:36;;;;;;;4.50;2.25;;;36.50;35.80;;;;;;5086671;28;20051;-42
2023/05/13 11:30:05;;;;;;;12.05;2.35;;;36.40;33.80;;;;;;5088236;28;20012;-40
2023/05/13 11:33:11;;;;;;;5.45;2.65;;;36.30;33.10;;;;;;5089024;28;20019;-40
2023/05/13 11:35:36;;;;;;;6.03;2.35;;;35.70;33.80;;;;;;5089256;28;20439;-41
2023/05/13 11:38:03;;;;;;;6.75;2.60;;;35.80;34.00;;;;;;5089204;28;20039;-41
2023/05/13 11:40:31;;;;;;;4.40;2.10;;;35.00;33.10;;;;;;5089640;28;20039;-40
2023/05/13 11:42:59;;;;;;;5.20;2.30;;;34.80;36.70;;;;;;5089189;28;20388;-41
2023/05/13 11:45:26;;;;;;;3.75;2.20;;;35.10;35.50;;;;;;5090125;28;20052;-40
2023/05/13 11:47:53;;;;;;;6.70;2.90;;;35.10;35.70;;;;;;5089457;28;20024;-40
2023/05/13 11:50:26;;;;;;;3.20;2.38;;;34.40;35.00;;;;;;5088929;28;20334;-41
2023/05/13 11:52:54;;;;;;;7.78;2.53;;;34.50;33.60;;;;;;5088277;28;20056;-40
2023/05/13 11:55:34;;;;;;;4.68;2.30;;;34.50;36.60;;;;;;5086811;28;20136;-40
2023/05/13 11:58:01;;;;;;;2.95;2.28;;;34.20;35.80;;;;;;5089657;28;20034;-40
2023/05/13 12:00:34;;;;;;;4.10;2.53;;;34.00;36.40;;;;;;5088626;28;20445;-40
2023/05/13 12:03:07;;;;;;;2.80;2.50;;;33.50;35.60;;;;;;5088445;28;20035;-40
2023/05/13 12:05:33;;;;;;;5.35;2.22;;;33.20;35.30;;;;;;5089204;28;20636;-39
2023/05/13 12:07:59;;;;;;;4.35;2.22;;;32.30;36.40;;;;;;5089293;28;20444;-39
2023/05/13 12:10:26;;;;;;;3.67;2.13;;;31.80;35.70;;;;;;5088512;28;20110;-39
2023/05/13 12:12:52;;;;;;;3.85;2.42;;;31.30;36.00;;;;;;5085433;28;20058;-39
2023/05/13 12:15:20;;;;;;;5.25;3.03;;;30.40;37.10;;;;;;5087944;28;20060;-39
2023/05/13 12:17:46;;;;;;;5.70;2.95;;;30.00;38.10;;;;;;5087419;28;20020;-39
2023/05/13 12:20:20;;;;;;;3.88;2.55;;;29.50;38.50;;;;;;5084098;28;20549;-39
2023/05/13 12:22:46;;;;;;;7.40;2.88;;;29.10;39.10;;;;;;5085573;28;20217;-39
2023/05/13 12:25:34;;;;;;;6.43;2.85;;;28.70;40.80;;;;;;5087887;28;20016;-39
2023/05/13 12:28:07;;;;;;;4.00;3.17;;;28.80;40.90;;;;;;5082109;28;20264;-39
2023/05/13 12:30:34;;;;;;;5.97;3.17;;;28.70;39.20;;;;;;5085961;28;20071;-39
2023/05/13 12:33:00;;;;;;;6.57;2.75;;;28.60;38.30;;;;;;5087411;28;20488;-39
2023/05/13 12:35:26;;;;;;;5.18;2.97;;;28.50;41.60;;;;;;5087639;28;20386;-39
2023/05/13 12:38:02;;;;;;;4.20;2.70;;;27.90;41.10;;;;;;5088879;28;20035;-39
2023/05/13 12:40:28;;;;;;;5.55;2.70;;;27.70;40.10;;;;;;5087456;28;20111;-41
2023/05/13 12:43:03;;;;;;;4.57;3.15;;;27.80;40.10;;;;;;5088487;28;20110;-41
2023/05/13 12:45:31;;;;;;;8.20;3.53;;;27.80;39.40;;;;;;5089063;28;20038;-41
2023/05/13 12:47:58;;;;;;;6.00;3.10;;;27.80;41.70;;;;;;5089019;28;20039;-41